createdAt,value
2022-08-08T00:02:33.152Z,35.69
2022-08-08T00:05:09.835Z,35.51
2022-08-08T00:08:02.413Z,35.74
2022-08-08T00:10:50.728Z,36.35
2022-08-08T00:14:16.780Z,36.41
2022-08-08T00:17:22.853Z,36.76
2022-08-08T00:20:02.590Z,36.61
2022-08-08T00:22:52.694Z,36.75
2022-08-08T00:25:44.831Z,36.40
2022-08-08T00:28:34.931Z,35.98
2022-08-08T00:32:16.201Z,36.71
2022-08-08T00:35:08.802Z,36.36
2022-08-08T00:38:06.318Z,36.14
2022-08-08T00:41:14.678Z,36.25
2022-08-08T00:44:01.370Z,36.17
2022-08-08T00:47:00.254Z,36.38
2022-08-08T00:49:33.877Z,36.37
2022-08-08T00:52:23.260Z,36.18
2022-08-08T00:55:10.703Z,36.19
2022-08-08T00:58:30.564Z,36.41
2022-08-08T01:01:37.800Z,37.19
2022-08-08T01:04:11.240Z,36.97
2022-08-08T01:07:10.632Z,36.81
2022-08-08T01:09:54.638Z,36.73
2022-08-08T01:12:54.239Z,36.74
2022-08-08T01:15:54.421Z,36.55
2022-08-08T01:18:52.496Z,36.67
2022-08-08T01:22:10.101Z,36.57
2022-08-08T01:24:58.256Z,36.46
2022-08-08T01:28:03.912Z,36.88
2022-08-08T01:30:46.231Z,36.88
2022-08-08T01:34:05.082Z,37.06
2022-08-08T01:37:05.874Z,36.82
2022-08-08T01:40:02.852Z,36.82
2022-08-08T01:42:38.220Z,37.41
2022-08-08T01:45:29.588Z,37.55
2022-08-08T01:48:16.847Z,37.27
2022-08-08T01:51:06.042Z,37.13
2022-08-08T01:55:19.458Z,37.43
2022-08-08T01:58:10.885Z,37.03
2022-08-08T02:00:57.371Z,36.85
2022-08-08T02:03:58.347Z,36.94
2022-08-08T02:06:57.757Z,37.71
2022-08-08T02:10:02.598Z,37.35
2022-08-08T02:12:53.510Z,37.77
2022-08-08T02:15:38.299Z,37.95
2022-08-08T02:18:17.749Z,37.91
2022-08-08T02:21:29.937Z,37.53
2022-08-08T02:24:09.280Z,37.61
2022-08-08T02:27:06.218Z,37.55
2022-08-08T02:30:06.498Z,37.31
2022-08-08T02:32:42.539Z,37.80
2022-08-08T02:36:03.693Z,37.55
2022-08-08T02:39:00.858Z,37.40
2022-08-08T02:42:05.887Z,37.31
2022-08-08T02:44:56.451Z,37.24
2022-08-08T02:47:47.172Z,37.30
2022-08-08T02:50:32.394Z,37.66
2022-08-08T02:53:18.935Z,37.51
2022-08-08T02:56:35.021Z,37.38
2022-08-08T02:59:58.236Z,37.29
2022-08-08T03:03:15.979Z,37.08
2022-08-08T03:06:34.837Z,37.54
2022-08-08T03:09:33.098Z,37.36
2022-08-08T03:13:01.644Z,37.61
2022-08-08T03:16:00.783Z,37.86
2022-08-08T03:19:17.881Z,37.84
2022-08-08T03:21:58.388Z,37.74
2022-08-08T03:24:28.871Z,37.70
2022-08-08T03:27:10.391Z,37.70
2022-08-08T03:29:54.658Z,38.00
2022-08-08T03:32:42.365Z,37.92
2022-08-08T03:35:22.899Z,37.87
2022-08-08T03:38:53.437Z,38.05
2022-08-08T03:40:43.513Z,37.85
2022-08-08T03:43:23.132Z,38.26
2022-08-08T03:46:03.517Z,38.46
2022-08-08T03:49:08.974Z,38.13
2022-08-08T03:51:39.995Z,37.70
2022-08-08T03:54:09.974Z,38.09
2022-08-08T03:56:49.590Z,38.11
2022-08-08T03:59:22.817Z,38.61
2022-08-08T04:02:31.482Z,38.48
2022-08-08T04:04:42.798Z,37.92
2022-08-08T04:07:16.301Z,37.79
2022-08-08T04:10:00.612Z,38.39
2022-08-08T04:12:36.598Z,37.82
2022-08-08T04:15:05.508Z,38.21
2022-08-08T04:17:58.226Z,38.30
2022-08-08T04:20:28.599Z,38.37
2022-08-08T04:22:58.211Z,38.41
2022-08-08T04:25:30.234Z,38.49
2022-08-08T04:28:37.197Z,38.52
2022-08-08T04:30:55.189Z,38.43
2022-08-08T04:33:28.680Z,38.73
2022-08-08T04:36:12.609Z,39.20
2022-08-08T04:38:44.240Z,38.91
2022-08-08T04:41:17.888Z,38.63
2022-08-08T04:43:57.096Z,38.67
2022-08-08T04:46:31.077Z,38.87
2022-08-08T04:48:59.243Z,39.26
2022-08-08T04:51:48.534Z,39.24
2022-08-08T04:54:40.136Z,39.48
2022-08-08T04:57:09.750Z,39.90
2022-08-08T04:59:41.878Z,40.70
2022-08-08T05:02:14.593Z,40.59
2022-08-08T05:04:45.168Z,40.88
2022-08-08T05:07:16.492Z,40.16
2022-08-08T05:09:44.125Z,40.03
2022-08-08T05:12:20.470Z,40.77
2022-08-08T05:14:52.267Z,40.19
2022-08-08T05:17:21.637Z,40.53
2022-08-08T05:20:09.196Z,41.18
2022-08-08T05:22:38.386Z,41.43
2022-08-08T05:25:07.343Z,41.93
2022-08-08T05:27:41.385Z,41.30
2022-08-08T05:30:12.737Z,41.88
2022-08-08T05:32:41.544Z,42.11
2022-08-08T05:35:14.548Z,42.44
2022-08-08T05:37:52.227Z,42.32
2022-08-08T05:40:28.095Z,41.92
2022-08-08T05:43:38.241Z,42.32
2022-08-08T05:46:04.053Z,42.40
2022-08-08T05:48:37.800Z,42.58
2022-08-08T05:51:14.833Z,43.17
2022-08-08T05:54:25.167Z,42.83
2022-08-08T05:56:41.924Z,43.27
2022-08-08T05:59:58.684Z,42.93
2022-08-08T06:02:40.881Z,42.80
2022-08-08T06:05:35.099Z,42.93
2022-08-08T06:08:10.018Z,42.63
2022-08-08T06:10:58.384Z,43.25
2022-08-08T06:13:36.481Z,43.07
2022-08-08T06:16:19.221Z,43.08
2022-08-08T06:18:54.517Z,42.29
2022-08-08T06:21:32.696Z,42.50
2022-08-08T06:24:14.021Z,42.32
2022-08-08T06:26:58.162Z,42.58
2022-08-08T06:30:00.382Z,42.87
2022-08-08T06:32:30.196Z,42.40
2022-08-08T06:36:04.621Z,42.17
2022-08-08T06:37:57.997Z,42.02
2022-08-08T06:40:29.851Z,41.85
2022-08-08T06:43:09.495Z,41.18
2022-08-08T06:45:39.288Z,40.92
2022-08-08T06:48:08.597Z,40.77
2022-08-08T06:50:39.388Z,40.70
2022-08-08T06:53:10.137Z,40.67
2022-08-08T06:55:47.400Z,41.00
2022-08-08T06:58:33.067Z,41.03
2022-08-08T07:01:24.563Z,40.11
2022-08-08T07:04:37.161Z,38.17
2022-08-08T07:06:57.397Z,37.30
2022-08-08T07:09:45.381Z,37.97
2022-08-08T07:12:42.864Z,37.68
2022-08-08T07:15:23.474Z,36.60
2022-08-08T07:18:36.097Z,37.14
2022-08-08T07:20:57.403Z,37.68
2022-08-08T07:24:01.254Z,37.57
2022-08-08T07:26:35.240Z,37.72
2022-08-08T07:29:11.533Z,37.79
2022-08-08T07:31:40.702Z,37.95
2022-08-08T07:34:10.486Z,38.14
2022-08-08T07:36:50.439Z,38.22
2022-08-08T07:39:29.746Z,37.39
2022-08-08T07:42:13.457Z,36.95
2022-08-08T07:44:47.963Z,37.17
2022-08-08T07:47:29.165Z,35.68
2022-08-08T07:50:08.336Z,36.26
2022-08-08T07:52:37.025Z,36.07
2022-08-08T07:55:29.325Z,36.25
2022-08-08T07:58:08.407Z,35.97
2022-08-08T08:00:45.581Z,34.74
2022-08-08T08:03:41.222Z,35.20
2022-08-08T08:06:14.244Z,34.68
2022-08-08T08:08:55.282Z,34.35
2022-08-08T08:11:33.671Z,34.17
2022-08-08T08:14:09.788Z,35.17
2022-08-08T08:16:41.102Z,35.66
2022-08-08T08:19:12.630Z,35.87
2022-08-08T08:21:52.501Z,36.08
2022-08-08T08:24:30.993Z,35.64
2022-08-08T08:27:02.942Z,34.89
2022-08-08T08:29:31.881Z,34.91
2022-08-08T08:32:05.728Z,33.26
2022-08-08T08:34:34.568Z,31.39
2022-08-08T08:37:07.856Z,31.09
2022-08-08T08:40:00.336Z,32.04
2022-08-08T08:42:32.077Z,30.91
2022-08-08T08:45:21.914Z,33.25
2022-08-08T08:47:53.985Z,32.63
2022-08-08T08:50:32.472Z,33.28
2022-08-08T08:53:27.996Z,33.39
2022-08-08T08:56:02.082Z,33.18
2022-08-08T08:58:37.635Z,33.75
2022-08-08T09:01:09.806Z,34.10
2022-08-08T09:03:46.029Z,33.55
2022-08-08T09:06:28.277Z,33.60
2022-08-08T09:09:07.229Z,33.95
2022-08-08T09:12:01.756Z,34.44
2022-08-08T09:14:34.686Z,34.80
2022-08-08T09:17:11.620Z,34.66
2022-08-08T09:21:57.969Z,34.58
2022-08-08T09:22:31.432Z,35.36
2022-08-08T09:24:59.441Z,35.96
2022-08-08T09:27:55.945Z,36.22
2022-08-08T09:30:17.717Z,36.31
2022-08-08T09:33:12.495Z,36.66
2022-08-08T09:35:50.273Z,36.54
2022-08-08T09:38:35.548Z,36.75
2022-08-08T09:42:15.203Z,37.56
2022-08-08T09:44:40.800Z,37.44
2022-08-08T09:48:02.661Z,37.36
2022-08-08T09:49:58.887Z,37.09
2022-08-08T09:52:56.571Z,37.63
2022-08-08T09:55:51.398Z,37.41
2022-08-08T09:58:25.728Z,37.76
2022-08-08T10:01:01.758Z,38.65
2022-08-08T10:03:33.160Z,37.67
2022-08-08T10:06:18.310Z,38.03
2022-08-08T10:08:47.159Z,38.28
2022-08-08T10:12:25.894Z,38.48
2022-08-08T10:14:28.540Z,38.36
2022-08-08T10:16:59.477Z,37.51
2022-08-08T10:19:57.547Z,37.42
2022-08-08T10:22:27.461Z,37.84
2022-08-08T10:25:01.320Z,37.46
2022-08-08T10:27:34.583Z,38.51
2022-08-08T10:30:05.350Z,37.45
2022-08-08T10:32:37.491Z,37.55
2022-08-08T10:36:01.974Z,37.76
2022-08-08T10:38:05.227Z,38.50
2022-08-08T10:40:33.501Z,38.24
2022-08-08T10:43:03.320Z,38.32
2022-08-08T10:45:56.275Z,38.59
2022-08-08T10:48:38.733Z,39.44
2022-08-08T10:51:26.438Z,39.70
2022-08-08T10:54:00.145Z,40.40
2022-08-08T10:56:34.663Z,40.58
2022-08-08T10:59:12.249Z,43.28
2022-08-08T11:01:54.574Z,44.39
2022-08-08T11:04:29.420Z,44.82
2022-08-08T11:07:07.072Z,45.96
2022-08-08T11:09:35.359Z,45.58
2022-08-08T11:12:12.532Z,45.72
2022-08-08T11:14:51.525Z,46.07
2022-08-08T11:18:00.241Z,46.53
2022-08-08T11:20:13.388Z,47.33
2022-08-08T11:22:41.761Z,48.14
2022-08-08T11:25:14.383Z,47.67
2022-08-08T11:27:47.873Z,47.87
2022-08-08T11:30:20.543Z,48.04
2022-08-08T11:32:55.254Z,49.21
2022-08-08T11:35:38.643Z,47.34
2022-08-08T11:38:36.711Z,48.50
2022-08-08T11:41:01.158Z,47.34
2022-08-08T11:43:39.605Z,49.04
2022-08-08T11:46:13.546Z,49.36
2022-08-08T11:48:47.091Z,50.16
2022-08-08T11:51:38.768Z,50.18
2022-08-08T11:54:27.308Z,50.74
2022-08-08T11:56:56.506Z,49.93
2022-08-08T11:59:58.654Z,52.08
2022-08-08T12:02:32.340Z,52.73
2022-08-08T12:05:22.883Z,53.84
2022-08-08T12:07:56.031Z,53.57
2022-08-08T12:10:26.564Z,53.51
2022-08-08T12:13:09.734Z,52.26
2022-08-08T12:15:41.975Z,52.22
2022-08-08T12:18:14.451Z,52.32
2022-08-08T12:20:44.036Z,51.74
2022-08-08T12:23:30.203Z,51.27
2022-08-08T12:26:09.975Z,50.86
2022-08-08T12:28:57.183Z,51.08
2022-08-08T12:31:39.121Z,50.21
2022-08-08T12:34:57.523Z,50.76
2022-08-08T12:37:40.674Z,51.27
2022-08-08T12:40:22.624Z,49.89
2022-08-08T12:42:52.873Z,48.89
2022-08-08T12:45:58.955Z,49.05
2022-08-08T12:48:37.448Z,49.37
2022-08-08T12:51:10.866Z,49.16
2022-08-08T12:54:01.557Z,50.67
2022-08-08T12:56:34.814Z,52.09
2022-08-08T12:59:16.248Z,50.43
2022-08-08T13:02:00.096Z,50.96
2022-08-08T13:04:30.061Z,51.45
2022-08-08T13:07:01.271Z,49.87
2022-08-08T13:10:10.680Z,48.30
2022-08-08T13:12:47.146Z,48.93
2022-08-08T13:15:19.566Z,49.02
2022-08-08T13:18:09.227Z,48.61
2022-08-08T13:20:44.812Z,48.16
2022-08-08T13:23:41.711Z,48.23
2022-08-08T13:26:14.780Z,47.35
2022-08-08T13:28:45.716Z,47.59
2022-08-08T13:31:17.156Z,49.34
2022-08-08T13:33:49.876Z,48.49
2022-08-08T13:36:26.041Z,47.28
2022-08-08T13:38:59.258Z,47.32
2022-08-08T13:41:37.778Z,46.07
2022-08-08T13:44:11.549Z,47.18
2022-08-08T13:46:40.017Z,47.25
2022-08-08T13:50:35.492Z,46.32
2022-08-08T13:52:06.861Z,46.90
2022-08-08T13:54:44.034Z,46.57
2022-08-08T13:57:14.499Z,46.59
2022-08-08T13:59:47.985Z,46.22
2022-08-08T14:02:20.878Z,45.76
2022-08-08T14:05:20.582Z,45.18
2022-08-08T14:07:51.977Z,45.46
2022-08-08T14:10:33.066Z,45.10
2022-08-08T14:13:20.997Z,44.75
2022-08-08T14:16:07.981Z,44.61
2022-08-08T14:18:52.025Z,45.25
2022-08-08T14:21:22.723Z,45.69
2022-08-08T14:24:06.898Z,46.40
2022-08-08T14:26:43.258Z,46.77
2022-08-08T14:29:27.977Z,48.38
2022-08-08T14:32:09.007Z,48.42
2022-08-08T14:34:38.789Z,47.22
2022-08-08T14:37:08.218Z,47.53
2022-08-08T14:39:48.671Z,48.24
2022-08-08T14:42:28.316Z,49.95
2022-08-08T14:45:00.953Z,49.06
2022-08-08T14:47:36.360Z,50.54
2022-08-08T14:50:14.878Z,49.33
2022-08-08T14:52:54.493Z,49.77
2022-08-08T14:55:41.163Z,49.05
2022-08-08T14:58:11.817Z,49.01
2022-08-08T15:00:45.160Z,49.89
2022-08-08T15:03:14.931Z,48.94
2022-08-08T15:05:54.185Z,49.95
2022-08-08T15:08:35.433Z,49.86
2022-08-08T15:11:09.437Z,49.50
2022-08-08T15:14:00.921Z,49.51
2022-08-08T15:16:29.476Z,49.63
2022-08-08T15:19:04.102Z,50.91
2022-08-08T15:21:32.357Z,49.27
2022-08-08T15:24:00.775Z,50.43
2022-08-08T15:26:29.577Z,48.39
2022-08-08T15:28:57.610Z,50.15
2022-08-08T15:31:55.801Z,49.58
2022-08-08T15:34:18.432Z,48.09
2022-08-08T15:36:57.669Z,48.93
2022-08-08T15:39:25.983Z,48.23
2022-08-08T15:41:54.869Z,50.35
2022-08-08T15:44:22.456Z,49.44
2022-08-08T15:46:50.587Z,49.57
2022-08-08T15:49:21.085Z,49.66
2022-08-08T15:51:51.913Z,50.22
2022-08-08T15:54:38.346Z,50.74
2022-08-08T15:57:09.455Z,49.91
2022-08-08T16:00:05.177Z,49.46
2022-08-08T16:02:30.788Z,48.80
2022-08-08T16:05:00.446Z,48.45
2022-08-08T16:07:51.880Z,48.32
2022-08-08T16:13:10.367Z,47.28
2022-08-08T16:13:30.889Z,48.24
2022-08-08T16:15:57.715Z,48.90
2022-08-08T16:18:33.001Z,47.17
2022-08-08T16:21:01.247Z,47.50
2022-08-08T16:23:32.329Z,47.97
2022-08-08T16:26:04.384Z,47.61
2022-08-08T16:28:34.920Z,47.02
2022-08-08T16:31:06.362Z,47.68
2022-08-08T16:33:39.377Z,47.55
2022-08-08T16:36:15.695Z,47.26
2022-08-08T16:38:53.921Z,46.50
2022-08-08T16:41:24.294Z,46.98
2022-08-08T16:43:52.360Z,46.38
2022-08-08T16:46:43.004Z,46.67
2022-08-08T16:49:09.332Z,45.85
2022-08-08T16:55:00.529Z,46.31
2022-08-08T16:55:13.926Z,45.51
2022-08-08T16:57:27.955Z,46.11
2022-08-08T17:00:09.624Z,44.75
2022-08-08T17:02:39.734Z,45.39
2022-08-08T17:05:10.200Z,46.82
2022-08-08T17:07:42.240Z,46.67
2022-08-08T17:10:11.733Z,47.01
2022-08-08T17:12:53.119Z,46.36
2022-08-08T17:15:22.998Z,46.01
2022-08-08T17:18:02.321Z,47.53
2022-08-08T17:20:32.520Z,47.52
2022-08-08T17:23:16.215Z,48.90
2022-08-08T17:25:52.665Z,49.05
2022-08-08T17:28:31.540Z,49.50
2022-08-08T17:31:39.075Z,50.82
2022-08-08T17:34:48.157Z,50.38
2022-08-08T17:37:00.857Z,50.70
2022-08-08T17:40:03.703Z,51.54
2022-08-08T17:42:17.971Z,51.52
2022-08-08T17:44:49.089Z,52.94
2022-08-08T17:47:23.858Z,52.23
2022-08-08T17:50:00.996Z,53.05
2022-08-08T17:52:33.408Z,53.84
2022-08-08T17:55:05.734Z,53.27
2022-08-08T17:57:51.491Z,52.77
2022-08-08T18:00:26.211Z,52.38
2022-08-08T18:03:08.740Z,52.71
2022-08-08T18:05:48.888Z,51.94
2022-08-08T18:08:38.396Z,53.38
2022-08-08T18:11:15.437Z,51.72
2022-08-08T18:13:47.173Z,54.06
2022-08-08T18:16:20.335Z,54.25
2022-08-08T18:18:56.284Z,54.11
2022-08-08T18:21:59.921Z,52.82
2022-08-08T18:24:19.756Z,52.33
2022-08-08T18:26:54.828Z,52.27
2022-08-08T18:29:29.450Z,51.81
2022-08-08T18:32:03.670Z,50.93
2022-08-08T18:34:33.536Z,51.47
2022-08-08T18:37:06.470Z,52.04
2022-08-08T18:39:36.977Z,51.15
2022-08-08T18:42:11.598Z,50.66
2022-08-08T18:44:42.409Z,51.49
2022-08-08T18:47:25.738Z,51.93
2022-08-08T18:49:58.947Z,50.99
2022-08-08T18:52:33.953Z,52.53
2022-08-08T18:55:10.324Z,50.65
2022-08-08T18:57:43.421Z,51.13
2022-08-08T19:00:20.475Z,50.41
2022-08-08T19:02:55.774Z,50.14
2022-08-08T19:05:31.861Z,50.67
2022-08-08T19:08:24.841Z,50.85
2022-08-08T19:10:58.613Z,50.96
2022-08-08T19:13:53.048Z,50.25
2022-08-08T19:16:20.380Z,51.94
2022-08-08T19:18:56.036Z,52.22
2022-08-08T19:21:30.839Z,51.97
2022-08-08T19:24:05.568Z,52.23
2022-08-08T19:26:38.041Z,51.61
2022-08-08T19:29:06.249Z,53.68
2022-08-08T19:31:35.386Z,52.95
2022-08-08T19:34:35.838Z,53.42
2022-08-08T19:36:58.597Z,52.77
2022-08-08T19:39:30.914Z,52.71
2022-08-08T19:42:05.138Z,52.68
2022-08-08T19:44:42.821Z,52.33
2022-08-08T19:47:14.830Z,52.79
2022-08-08T19:49:59.863Z,52.44
2022-08-08T19:52:37.187Z,52.62
2022-08-08T19:55:11.114Z,52.53
2022-08-08T19:57:42.557Z,52.96
2022-08-08T20:00:29.320Z,53.00
2022-08-08T20:03:00.374Z,54.15
2022-08-08T20:06:15.561Z,52.78
2022-08-08T20:08:31.072Z,52.07
2022-08-08T20:11:03.154Z,52.07
2022-08-08T20:14:34.754Z,51.47
2022-08-08T20:16:19.139Z,51.29
2022-08-08T20:18:53.275Z,51.57
2022-08-08T20:21:25.815Z,50.99
2022-08-08T20:23:58.155Z,50.56
2022-08-08T20:26:33.310Z,51.18
2022-08-08T20:29:03.266Z,50.93
2022-08-08T20:32:08.256Z,50.10
2022-08-08T20:34:30.629Z,49.75
2022-08-08T20:37:02.529Z,48.74
2022-08-08T20:39:39.375Z,49.02
2022-08-08T20:42:20.601Z,49.54
2022-08-08T20:44:56.963Z,49.19
2022-08-08T20:47:25.546Z,47.81
2022-08-08T20:49:54.313Z,47.44
2022-08-08T20:52:27.648Z,46.99
2022-08-08T20:54:56.614Z,47.85
2022-08-08T20:57:26.865Z,46.83
2022-08-08T20:59:56.293Z,47.40
2022-08-08T21:02:25.677Z,45.39
2022-08-08T21:05:00.824Z,45.54
2022-08-08T21:08:07.711Z,46.01
2022-08-08T21:10:20.701Z,46.72
2022-08-08T21:12:52.787Z,45.58
2022-08-08T21:16:04.126Z,45.85
2022-08-08T21:18:09.755Z,45.19
2022-08-08T21:20:41.987Z,45.06
2022-08-08T21:23:15.870Z,45.40
2022-08-08T21:25:49.195Z,44.33
2022-08-08T21:28:19.472Z,44.92
2022-08-08T21:31:06.104Z,45.60
2022-08-08T21:33:52.776Z,46.22
2022-08-08T21:36:28.502Z,45.91
2022-08-08T21:38:57.554Z,45.13
2022-08-08T21:41:38.269Z,44.90
2022-08-08T21:44:11.616Z,46.29
2022-08-08T21:48:05.107Z,44.41
2022-08-08T21:49:31.597Z,44.93
2022-08-08T21:54:34.185Z,46.19
2022-08-08T21:54:54.956Z,45.41
2022-08-08T21:57:29.229Z,44.72
2022-08-08T22:00:12.423Z,44.79
2022-08-08T22:02:44.278Z,44.99
2022-08-08T22:05:14.919Z,44.65
2022-08-08T22:07:44.254Z,44.68
2022-08-08T22:10:18.215Z,44.24
2022-08-08T22:13:17.604Z,44.08
2022-08-08T22:15:59.238Z,44.18
2022-08-08T22:18:33.357Z,43.86
2022-08-08T22:21:13.740Z,43.63
2022-08-08T22:23:51.578Z,43.50
2022-08-08T22:26:30.878Z,43.58
2022-08-08T22:29:12.883Z,44.37
2022-08-08T22:31:58.635Z,44.32
2022-08-08T22:34:39.496Z,43.77
2022-08-08T22:37:14.944Z,44.05
2022-08-08T22:40:01.046Z,43.55
2022-08-08T22:42:31.755Z,43.53
2022-08-08T22:45:05.344Z,43.49
2022-08-08T22:47:48.903Z,44.64
2022-08-08T22:50:27.252Z,44.73
2022-08-08T22:54:33.909Z,43.92
2022-08-08T22:55:59.266Z,43.84
2022-08-08T22:58:34.698Z,44.00
2022-08-08T23:01:26.761Z,43.86
2022-08-08T23:03:56.425Z,43.66
2022-08-08T23:06:25.327Z,43.57
2022-08-08T23:08:55.427Z,43.42
2022-08-08T23:11:31.438Z,43.31
2022-08-08T23:14:13.092Z,43.75
2022-08-08T23:16:44.018Z,43.98
2022-08-08T23:19:15.350Z,44.05
2022-08-08T23:21:45.674Z,43.92
2022-08-08T23:24:22.740Z,43.67
2022-08-08T23:26:55.389Z,43.72
2022-08-08T23:29:25.564Z,43.77
2022-08-08T23:31:56.440Z,43.93
2022-08-08T23:34:24.432Z,43.98
2022-08-08T23:36:58.183Z,44.03
2022-08-08T23:39:41.458Z,44.24
2022-08-08T23:42:16.576Z,44.42
2022-08-08T23:44:45.200Z,44.15
2022-08-08T23:49:06.164Z,43.92
2022-08-08T23:50:00.992Z,44.08
2022-08-08T23:52:31.325Z,44.48
2022-08-08T23:55:07.335Z,44.31
2022-08-08T23:57:52.102Z,44.38
